Time;durP1;ratioP1;P1;durP2;ratioP2;P2;SDS_P1;SDS_P2;PMS_P1;PMS_P2;Temp;Humidity;BMP_temperature;BMP_pressure;BME280_temperature;BME280_humidity;BME280_pressure;Samples;Min_cycle;Max_cycle;Signal;HPM_P1;HPM_P2
2021/11/05 00:02:12;;;;;;;12.30;4.80;;;;;;;3.97;100.00;100299.97;5091968;28;20052;-69
2021/11/05 00:04:39;;;;;;;12.30;5.10;;;;;;;3.98;100.00;100294.75;5092070;28;20044;-69
2021/11/05 00:07:07;;;;;;;10.55;5.00;;;;;;;4.03;100.00;100290.28;5091988;28;20044;-69
2021/11/05 00:09:34;;;;;;;10.82;4.85;;;;;;;4.19;100.00;100292.31;5091826;28;20441;-69
2021/11/05 00:12:01;;;;;;;9.15;4.55;;;;;;;4.29;100.00;100296.22;5091628;28;20048;-69
2021/11/05 00:14:28;;;;;;;9.68;4.97;;;;;;;4.28;100.00;100289.41;5091664;28;20056;-69
2021/11/05 00:16:55;;;;;;;10.98;4.85;;;;;;;4.33;100.00;100290.09;5091837;28;20051;-69
2021/11/05 00:19:22;;;;;;;10.02;4.60;;;;;;;4.31;100.00;100284.97;5092120;28;20082;-69
2021/11/05 00:21:49;;;;;;;7.68;4.50;;;;;;;4.31;100.00;100290.13;5092113;28;20051;-69
2021/11/05 00:24:17;;;;;;;11.65;4.75;;;;;;;4.32;100.00;100289.25;5091380;28;20044;-69
2021/11/05 00:26:44;;;;;;;8.98;4.88;;;;;;;4.43;100.00;100285.44;5092021;28;20059;-69
2021/11/05 00:29:11;;;;;;;10.25;4.93;;;;;;;4.40;100.00;100286.38;5091501;28;20052;-69
2021/11/05 00:31:37;;;;;;;9.10;4.55;;;;;;;4.54;99.99;100286.69;5091673;28;20055;-69
2021/11/05 00:34:04;;;;;;;9.10;4.70;;;;;;;4.53;100.00;100289.34;5091260;28;20044;-69
2021/11/05 00:36:31;;;;;;;8.32;4.60;;;;;;;4.60;99.79;100280.50;5091940;28;20055;-69
2021/11/05 00:38:58;;;;;;;9.55;4.78;;;;;;;4.61;99.64;100283.91;5091390;28;20048;-69
2021/11/05 00:41:26;;;;;;;8.60;4.57;;;;;;;4.56;99.54;100277.19;5093258;28;20483;-69
2021/11/05 00:43:53;;;;;;;7.03;4.25;;;;;;;4.39;100.00;100282.13;5095398;28;20052;-69
2021/11/05 00:46:20;;;;;;;7.72;4.57;;;;;;;4.20;100.00;100278.56;5095811;28;20055;-69
2021/11/05 00:48:47;;;;;;;8.75;4.85;;;;;;;4.20;100.00;100278.56;5095652;28;20048;-69
2021/11/05 00:51:14;;;;;;;8.13;4.72;;;;;;;4.21;100.00;100277.66;5095225;28;20047;-68
2021/11/05 00:53:41;;;;;;;7.35;4.25;;;;;;;4.24;100.00;100283.53;5095316;28;20293;-69
2021/11/05 00:56:07;;;;;;;6.43;3.83;;;;;;;4.29;100.00;100275.63;5095160;28;20048;-69
2021/11/05 00:58:36;;;;;;;9.40;4.43;;;;;;;4.33;100.00;100280.63;5095495;28;20048;-69
2021/11/05 01:01:03;;;;;;;9.32;4.43;;;;;;;4.36;100.00;100275.34;5095149;28;20056;-69
2021/11/05 01:03:29;;;;;;;7.95;4.25;;;;;;;4.40;100.00;100277.81;5095181;28;20048;-69
2021/11/05 01:05:56;;;;;;;9.25;4.43;;;;;;;4.36;100.00;100270.19;5095151;28;20437;-69
2021/11/05 01:08:23;;;;;;;12.38;4.50;;;;;;;4.40;100.00;100273.50;5094863;28;20412;-69
2021/11/05 01:10:50;;;;;;;8.98;4.32;;;;;;;4.33;100.00;100264.31;5095233;28;20079;-69
2021/11/05 01:13:17;;;;;;;8.93;4.82;;;;;;;4.41;100.00;100259.72;5094852;28;20044;-69
2021/11/05 01:15:45;;;;;;;10.40;4.90;;;;;;;4.43;100.00;100263.09;5095200;28;20055;-69
2021/11/05 01:18:12;;;;;;;9.73;4.65;;;;;;;4.44;100.00;100261.34;5094845;28;20062;-69
2021/11/05 01:20:40;;;;;;;10.48;4.88;;;;;;;4.40;100.00;100258.06;5094684;28;20052;-69
2021/11/05 01:23:07;;;;;;;8.25;5.22;;;;;;;4.63;100.00;100253.78;5094384;28;20086;-68
2021/11/05 01:25:34;;;;;;;11.43;5.00;;;;;;;4.60;99.53;100259.88;5094959;28;20052;-69
2021/11/05 01:28:01;;;;;;;9.93;4.85;;;;;;;4.61;100.00;100253.81;5094601;28;20048;-68
2021/11/05 01:30:28;;;;;;;11.18;5.05;;;;;;;4.56;100.00;100260.88;5094580;28;20486;-69
2021/11/05 01:32:57;;;;;;;9.68;5.45;;;;;;;4.51;100.00;100252.50;5094826;28;20048;-69
2021/11/05 01:35:24;;;;;;;15.40;6.88;;;;;;;4.46;100.00;100254.41;5094643;28;20047;-68
2021/11/05 01:37:51;;;;;;;10.70;6.00;;;;;;;4.45;100.00;100253.56;5094814;28;20194;-68
2021/11/05 01:40:18;;;;;;;13.13;6.45;;;;;;;4.44;100.00;100246.72;5094388;28;20052;-68
2021/11/05 01:42:44;;;;;;;;;;;;;;;4.42;100.00;100248.53;5094692;28;20514;-68
2021/11/05 01:45:13;;;;;;;12.82;6.82;;;;;;;4.45;100.00;100248.41;5093980;28;20389;-69
2021/11/05 01:47:40;;;;;;;13.88;6.43;;;;;;;4.45;100.00;100243.25;5094526;28;20048;-69
2021/11/05 01:50:11;;;;;;;13.98;6.82;;;;;;;4.44;100.00;100238.16;5094309;28;20135;-69
2021/11/05 01:52:39;;;;;;;10.90;6.75;;;;;;;4.40;100.00;100237.44;5093436;28;20058;-69
2021/11/05 01:55:07;;;;;;;9.70;5.38;;;;;;;4.41;100.00;100236.53;5093854;28;20064;-68
2021/11/05 01:57:34;;;;;;;9.07;5.55;;;;;;;4.39;100.00;100230.59;5094317;28;20047;-69
2021/11/05 02:00:01;;;;;;;;;;;;;;;4.42;100.00;100232.22;5094102;28;20063;-69
2021/11/05 02:02:28;;;;;;;9.38;4.53;;;;;;;4.38;100.00;100233.25;5094201;28;19927;-68
2021/11/05 02:04:54;;;;;;;7.53;4.85;;;;;;;4.35;100.00;100224.75;5094164;28;20051;-69
2021/11/05 02:07:25;;;;;;;7.88;4.70;;;;;;;4.34;100.00;100227.34;5094178;28;20047;-69
2021/11/05 02:09:52;;;;;;;7.03;5.03;;;;;;;4.31;100.00;100225.75;5093636;28;20059;-68
2021/11/05 02:12:19;;;;;;;;;;;;;;;4.30;100.00;100220.66;5093955;28;20055;-68
2021/11/05 02:14:47;;;;;;;;;;;;;;;4.24;100.00;100218.28;5094456;28;19927;-69
2021/11/05 02:17:14;;;;;;;6.00;3.85;;;;;;;4.22;100.00;100220.94;5093628;28;19920;-68
2021/11/05 02:19:42;;;;;;;7.90;4.15;;;;;;;4.19;100.00;100221.06;5093622;28;20048;-68
2021/11/05 02:22:11;;;;;;;7.97;3.88;;;;;;;4.13;100.00;100216.13;5093458;28;20062;-69
2021/11/05 02:24:38;;;;;;;6.28;3.80;;;;;;;4.10;100.00;100217.06;5093441;28;20040;-68
2021/11/05 02:27:05;;;;;;;7.00;4.20;;;;;;;4.11;100.00;100216.19;5093188;28;20055;-68
2021/11/05 02:29:34;;;;;;;4.78;3.47;;;;;;;4.08;100.00;100218.88;5093654;28;20055;-68
2021/11/05 02:32:01;;;;;;;6.45;4.28;;;;;;;4.13;100.00;100216.97;5092930;28;20052;-68
2021/11/05 02:34:29;;;;;;;6.00;3.97;;;;;;;4.13;100.00;100209.22;5093273;28;20040;-69
2021/11/05 02:36:55;;;;;;;;;;;;;;;4.15;100.00;100206.63;5093478;28;20083;-68
2021/11/05 02:39:24;;;;;;;6.28;3.75;;;;;;;4.05;100.00;100208.69;5093269;28;19920;-68
2021/11/05 02:41:53;;;;;;;5.43;3.58;;;;;;;4.10;100.00;100205.94;5093390;28;20243;-69
2021/11/05 02:44:21;;;;;;;4.18;2.90;;;;;;;4.13;100.00;100196.34;5092601;28;20048;-68
2021/11/05 02:46:48;;;;;;;6.45;3.60;;;;;;;4.15;100.00;100197.16;5093053;28;20055;-69
2021/11/05 02:49:16;;;;;;;;;;;;;;;4.16;100.00;100197.97;5093224;28;20048;-68
2021/11/05 02:51:44;;;;;;;4.80;2.97;;;;;;;4.15;100.00;100184.28;5093114;28;20014;-69
2021/11/05 02:54:12;;;;;;;3.20;2.60;;;;;;;4.17;100.00;100193.69;5092604;28;20051;-69
2021/11/05 02:56:41;;;;;;;5.07;2.85;;;;;;;4.05;100.00;100193.22;5093146;28;20048;-68
2021/11/05 02:59:09;;;;;;;4.90;2.80;;;;;;;4.10;100.00;100190.50;5092935;28;20098;-68
2021/11/05 03:01:37;;;;;;;5.85;3.40;;;;;;;4.08;100.00;100185.41;5092753;28;20058;-68
2021/11/05 03:04:06;;;;;;;3.95;3.20;;;;;;;4.09;100.00;100179.38;5091589;28;20054;-69
2021/11/05 03:06:37;;;;;;;9.88;3.47;;;;;;;4.08;100.00;100179.41;5092708;28;20411;-68
2021/11/05 03:09:09;;;;;;;3.67;2.78;;;;;;;4.11;100.00;100184.44;5092455;28;20052;-68
2021/11/05 03:11:36;;;;;;;5.88;3.30;;;;;;;4.09;100.00;100179.38;5092568;28;20388;-68
2021/11/05 03:14:05;;;;;;;;;;;;;;;4.11;100.00;100175.00;5093136;28;20047;-69
2021/11/05 03:16:32;;;;;;;7.85;3.78;;;;;;;4.12;100.00;100179.25;5092971;28;19957;-68
2021/11/05 03:18:59;;;;;;;5.60;4.07;;;;;;;4.03;100.00;100179.56;5092628;28;20048;-68
2021/11/05 03:21:25;;;;;;;9.43;4.13;;;;;;;4.04;100.00;100173.56;5092779;28;20044;-69
2021/11/05 03:23:52;;;;;;;5.82;3.90;;;;;;;4.05;100.00;100175.22;5092581;28;20055;-69
2021/11/05 03:26:19;;;;;;;7.20;3.72;;;;;;;4.05;100.00;100172.63;5092198;28;20567;-68
2021/11/05 03:28:46;;;;;;;4.97;3.45;;;;;;;4.05;100.00;100170.06;5092383;28;20052;-68
2021/11/05 03:31:14;;;;;;;5.70;3.88;;;;;;;3.96;100.00;100173.00;5092323;28;20054;-68
2021/11/05 03:33:41;;;;;;;6.35;4.13;;;;;;;4.01;100.00;100168.53;5092491;28;20040;-68
2021/11/05 03:36:08;;;;;;;7.38;4.07;;;;;;;3.98;100.00;100167.78;5092340;28;20048;-68
2021/11/05 03:38:35;;;;;;;5.03;3.90;;;;;;;4.00;100.00;100171.13;5092251;28;20459;-69
2021/11/05 03:41:02;;;;;;;5.82;3.95;;;;;;;3.88;100.00;100164.72;5092259;28;20044;-69
2021/11/05 03:43:29;;;;;;;7.38;3.92;;;;;;;3.90;100.00;100165.50;5092187;28;20044;-69
2021/11/05 03:45:56;;;;;;;;;;;;;;;4.00;100.00;100161.69;5092332;28;20453;-69
2021/11/05 03:48:24;;;;;;;12.30;3.40;;;;;;;4.04;100.00;100163.25;5092182;28;19927;-69
2021/11/05 03:50:51;;;;;;;4.53;3.33;;;;;;;4.00;100.00;100159.09;5092332;28;20052;-69
2021/11/05 03:53:18;;;;;;;5.22;3.42;;;;;;;3.93;100.00;100155.94;5091729;28;20062;-68
2021/11/05 03:55:45;;;;;;;4.65;3.20;;;;;;;3.97;100.00;100156.66;5091824;28;20052;-69
2021/11/05 03:58:12;;;;;;;21.00;3.38;;;;;;;3.91;100.00;100155.16;5092070;28;20411;-69
2021/11/05 04:00:39;;;;;;;4.90;3.20;;;;;;;3.91;100.00;100154.31;5092294;28;20044;-68
2021/11/05 04:03:06;;;;;;;4.97;2.60;;;;;;;3.91;100.00;100151.75;5091679;28;20054;-69
2021/11/05 04:05:34;;;;;;;5.60;2.55;;;;;;;3.91;100.00;100146.59;5092256;28;20052;-69
2021/11/05 04:08:01;;;;;;;4.30;2.35;;;;;;;3.90;100.00;100137.19;5091842;28;20135;-69
2021/11/05 04:10:28;;;;;;;8.43;2.22;;;;;;;3.88;100.00;100131.28;5091715;28;20062;-68
2021/11/05 04:12:55;;;;;;;3.38;2.40;;;;;;;3.83;100.00;100134.00;5091824;28;20534;-69
2021/11/05 04:15:22;;;;;;;2.40;1.95;;;;;;;3.81;100.00;100134.97;5093768;28;20051;-69
2021/11/05 04:17:49;;;;;;;2.58;2.20;;;;;;;3.78;100.00;100130.75;5095833;28;20240;-69
2021/11/05 04:20:16;;;;;;;2.38;1.95;;;;;;;3.77;100.00;100130.81;5095535;28;20479;-69
2021/11/05 04:22:44;;;;;;;3.47;2.40;;;;;;;3.74;100.00;100129.19;5095877;28;20484;-68
2021/11/05 04:25:11;;;;;;;2.67;2.15;;;;;;;3.76;100.00;100126.56;5095653;28;20061;-69
2021/11/05 04:27:39;;;;;;;2.65;1.90;;;;;;;3.78;100.00;100127.34;5095720;28;20052;-69
2021/11/05 04:30:07;;;;;;;;;;;;;;;3.66;100.00;100120.91;5095944;28;20483;-69
2021/11/05 04:32:33;;;;;;;3.92;2.35;;;;;;;3.68;100.00;100121.72;5095696;28;19969;-69
2021/11/05 04:35:00;;;;;;;3.30;2.20;;;;;;;3.71;100.00;100125.00;5095327;28;20051;-69
2021/11/05 04:37:27;;;;;;;7.35;2.20;;;;;;;3.77;100.00;100120.53;5095787;28;20048;-69
2021/11/05 04:39:56;;;;;;;3.38;1.90;;;;;;;3.77;100.00;100123.09;5095531;28;20044;-69
2021/11/05 04:42:22;;;;;;;4.38;1.92;;;;;;;3.79;100.00;100117.00;5095384;28;20063;-68
2021/11/05 04:44:49;;;;;;;3.17;2.10;;;;;;;3.79;100.00;100121.31;5095303;28;20411;-69
2021/11/05 04:47:16;;;;;;;4.13;2.17;;;;;;;3.83;100.00;100115.16;5095516;28;20056;-68
2021/11/05 04:49:43;;;;;;;2.75;2.25;;;;;;;3.78;100.00;100120.47;5095625;28;20055;-69
2021/11/05 04:52:10;;;;;;;3.80;2.60;;;;;;;3.61;100.00;100118.50;5094858;28;20052;-69
2021/11/05 04:54:37;;;;;;;3.28;2.20;;;;;;;3.78;100.00;100111.91;5095571;28;20051;-69
2021/11/05 04:57:06;;;;;;;3.40;2.45;;;;;;;3.83;100.00;100104.88;5095242;28;20044;-69
2021/11/05 04:59:33;;;;;;;4.57;2.50;;;;;;;3.79;100.00;100104.13;5095318;28;20051;-69
2021/11/05 05:02:00;;;;;;;5.25;2.30;;;;;;;3.88;100.00;100106.38;5095139;28;20090;-69
2021/11/05 05:04:26;;;;;;;5.45;2.42;;;;;;;3.86;100.00;100107.31;5095222;28;20048;-69
2021/11/05 05:06:53;;;;;;;2.35;2.00;;;;;;;3.87;100.00;100098.69;5095282;28;20051;-69
2021/11/05 05:09:20;;;;;;;2.75;1.70;;;;;;;3.84;100.00;100098.81;5095504;28;20089;-69
2021/11/05 05:11:48;;;;;;;3.35;1.80;;;;;;;3.77;100.00;100090.47;5095189;28;20044;-68
2021/11/05 05:14:17;;;;;;;2.60;2.00;;;;;;;3.78;100.00;100092.16;5094543;28;20059;-69
2021/11/05 05:16:44;;;;;;;2.65;2.10;;;;;;;3.81;100.00;100094.63;5094682;28;20528;-69
2021/11/05 05:19:11;;;;;;;3.92;2.45;;;;;;;3.86;100.00;100091.88;5094842;28;20052;-69
2021/11/05 05:21:38;;;;;;;3.15;2.28;;;;;;;3.81;100.00;100081.75;5094628;28;20052;-69
2021/11/05 05:24:05;;;;;;;3.13;2.42;;;;;;;3.84;100.00;100073.06;5094390;28;20047;-69
2021/11/05 05:26:32;;;;;;;3.47;2.47;;;;;;;3.95;100.00;100072.66;5093667;28;20048;-69
2021/11/05 05:28:59;;;;;;;3.55;2.33;;;;;;;3.93;100.00;100065.03;5094624;28;20055;-69
2021/11/05 05:31:28;;;;;;;3.20;2.22;;;;;;;3.92;100.00;100065.91;5094508;28;20048;-68
2021/11/05 05:33:54;;;;;;;4.00;2.42;;;;;;;3.92;100.00;100060.75;5094753;28;20055;-69
2021/11/05 05:36:21;;;;;;;3.72;2.60;;;;;;;3.90;100.00;100060.81;5094671;28;20048;-68
2021/11/05 05:38:49;;;;;;;3.60;2.13;;;;;;;3.83;100.00;100051.66;5094203;28;20052;-69
2021/11/05 05:41:16;;;;;;;2.72;2.28;;;;;;;3.73;100.00;100052.06;5094074;28;20418;-69
2021/11/05 05:43:43;;;;;;;4.82;2.50;;;;;;;3.80;100.00;100043.19;5094471;28;20044;-69
2021/11/05 05:46:10;;;;;;;6.43;2.50;;;;;;;3.64;100.00;100048.94;5093955;28;20059;-68
2021/11/05 05:48:39;;;;;;;3.70;2.47;;;;;;;3.55;100.00;100045.88;5094055;28;20059;-69
2021/11/05 05:51:06;;;;;;;3.53;2.33;;;;;;;3.76;100.00;100039.09;5094259;28;20051;-69
2021/11/05 05:53:33;;;;;;;2.90;2.30;;;;;;;3.82;100.00;100043.97;5094039;28;20067;-69
2021/11/05 05:55:59;;;;;;;4.00;2.17;;;;;;;3.75;100.00;100045.09;5094100;28;20051;-69
2021/11/05 05:58:26;;;;;;;3.15;2.35;;;;;;;3.92;100.00;100035.00;5094210;28;20055;-68
2021/11/05 06:00:54;;;;;;;3.97;2.05;;;;;;;3.87;100.00;100040.34;5093979;28;20052;-68
2021/11/05 06:03:21;;;;;;;6.85;2.75;;;;;;;3.91;100.00;100038.50;5093725;28;20411;-68
2021/11/05 06:05:49;;;;;;;4.55;2.38;;;;;;;3.91;100.00;100038.50;5093802;28;20438;-69
2021/11/05 06:08:16;;;;;;;3.00;2.17;;;;;;;3.82;100.00;100037.09;5093510;28;20055;-69
2021/11/05 06:10:43;;;;;;;3.80;2.30;;;;;;;3.88;100.00;100036.03;5094141;28;20070;-69
2021/11/05 06:13:09;;;;;;;3.22;2.38;;;;;;;3.85;100.00;100031.84;5093432;28;20051;-69
2021/11/05 06:15:36;;;;;;;2.88;2.50;;;;;;;3.85;100.00;100033.56;5093721;28;20048;-69
2021/11/05 06:18:04;;;;;;;3.08;2.60;;;;;;;3.87;100.00;100031.78;5093805;28;20058;-69
2021/11/05 06:20:30;;;;;;;;;;;;;;;3.76;100.00;100026.22;5094267;28;20044;-69
2021/11/05 06:22:59;;;;;;;3.65;2.42;;;;;;;3.76;100.00;100021.06;5093176;28;19920;-69
2021/11/05 06:25:26;;;;;;;3.25;2.35;;;;;;;3.89;100.00;100022.28;5093704;28;20044;-69
2021/11/05 06:27:53;;;;;;;;;;;;;;;3.68;100.00;100011.91;5093839;28;20294;-69
2021/11/05 06:30:19;;;;;;;6.95;2.78;;;;;;;3.48;100.00;100016.97;5093391;28;19920;-69
2021/11/05 06:32:46;;;;;;;5.88;2.80;;;;;;;3.66;100.00;100007.72;5093689;28;20071;-69
2021/11/05 06:35:14;;;;;;;3.60;2.70;;;;;;;3.57;100.00;100002.91;5093290;28;20078;-69
2021/11/05 06:37:41;;;;;;;3.38;2.60;;;;;;;3.47;100.00;100008.41;5093480;28;20051;-69
2021/11/05 06:40:13;;;;;;;5.95;2.67;;;;;;;3.59;100.00;100008.84;5093006;28;20410;-69
2021/11/05 06:42:40;;;;;;;3.80;2.28;;;;;;;3.68;100.00;100004.19;5093144;28;20048;-69
2021/11/05 06:45:08;;;;;;;7.20;2.50;;;;;;;3.70;100.00;100007.53;5092570;28;20055;-69
2021/11/05 06:47:36;;;;;;;3.92;2.50;;;;;;;3.78;100.00;100001.28;5093136;28;20048;-69
2021/11/05 06:50:03;;;;;;;;;;;;;;;3.81;100.00;100001.97;5093164;28;20044;-69
2021/11/05 06:52:29;;;;;;;;;;;;;;;3.85;100.00;100003.53;5093427;28;19920;-69
2021/11/05 06:54:56;;;;;;;3.35;2.45;;;;;;;3.57;100.00;100001.19;5092766;28;20346;-69
2021/11/05 06:57:24;;;;;;;2.80;2.10;;;;;;;3.51;100.00;99995.44;5093292;28;20048;-69
2021/11/05 06:59:51;;;;;;;4.30;2.60;;;;;;;3.70;100.00;99991.28;5093101;28;20044;-69
2021/11/05 07:02:18;;;;;;;2.83;2.10;;;;;;;3.73;100.00;99990.31;5092930;28;20058;-69
2021/11/05 07:04:45;;;;;;;3.13;2.00;;;;;;;3.83;100.00;99989.91;5093116;28;20048;-69
2021/11/05 07:07:12;;;;;;;2.63;2.05;;;;;;;3.74;100.00;99991.97;5092857;28;20051;-69
2021/11/05 07:09:39;;;;;;;4.53;2.45;;;;;;;3.66;100.00;99985.41;5092949;28;20048;-69
2021/11/05 07:12:07;;;;;;;2.95;2.10;;;;;;;3.69;100.00;99981.88;5092307;28;20439;-69
2021/11/05 07:14:35;;;;;;;3.45;2.45;;;;;;;3.63;100.00;99972.66;5092878;28;20046;-69
2021/11/05 07:17:03;;;;;;;4.18;2.20;;;;;;;3.53;100.00;99971.34;5092632;28;20044;-69
2021/11/05 07:19:29;;;;;;;4.40;2.75;;;;;;;3.49;100.00;99970.63;5092826;28;20048;-69
2021/11/05 07:22:02;;;;;;;3.40;2.30;;;;;;;3.67;100.00;99973.38;5092457;28;20047;-68
2021/11/05 07:24:30;;;;;;;5.88;2.45;;;;;;;3.57;100.00;99972.91;5092337;28;20052;-69
2021/11/05 07:26:57;;;;;;;3.67;2.60;;;;;;;3.46;100.00;99970.72;5092110;28;20063;-69
2021/11/05 07:29:26;;;;;;;4.90;2.83;;;;;;;3.40;100.00;99963.25;5092951;28;20055;-69
2021/11/05 07:31:55;;;;;;;4.53;2.50;;;;;;;3.42;100.00;99961.47;5092632;28;20071;-69
2021/11/05 07:34:23;;;;;;;5.60;2.92;;;;;;;3.44;100.00;99966.53;5092465;28;20055;-69
2021/11/05 07:36:50;;;;;;;3.53;2.47;;;;;;;3.42;100.00;99965.78;5092102;28;20407;-69
2021/11/05 07:39:17;;;;;;;3.60;2.72;;;;;;;3.53;100.00;99961.03;5092267;28;20048;-69
2021/11/05 07:41:44;;;;;;;4.40;2.97;;;;;;;3.52;100.00;99967.09;5092390;28;20044;-69
2021/11/05 07:44:11;;;;;;;6.43;3.28;;;;;;;3.61;100.00;99958.19;5092263;28;20048;-68
2021/11/05 07:46:40;;;;;;;5.82;2.70;;;;;;;3.51;100.00;99962.00;5092033;28;20067;-69
2021/11/05 07:49:09;;;;;;;6.03;2.85;;;;;;;3.46;100.00;99950.16;5091481;28;20554;-69
2021/11/05 07:51:36;;;;;;;2.85;2.42;;;;;;;3.53;100.00;99944.78;5091648;28;20518;-69
2021/11/05 07:54:02;;;;;;;4.35;2.63;;;;;;;3.53;100.00;99947.34;5091911;28;20048;-69
2021/11/05 07:56:29;;;;;;;7.45;3.60;;;;;;;3.69;100.00;99945.84;5092315;28;20043;-69
2021/11/05 07:58:57;;;;;;;8.48;3.53;;;;;;;3.97;100.00;99944.75;5091628;28;20055;-69
2021/11/05 08:01:23;;;;;;;4.63;2.70;;;;;;;4.20;100.00;99942.06;5091940;28;20408;-69
2021/11/05 08:03:50;;;;;;;4.53;2.83;;;;;;;4.29;99.74;99946.84;5091842;28;20044;-69
2021/11/05 08:06:20;;;;;;;8.50;3.53;;;;;;;4.15;99.40;99937.09;5091683;28;20068;-69
2021/11/05 08:08:47;;;;;;;6.80;3.13;;;;;;;4.14;100.00;99932.88;5092119;28;20052;-69
2021/11/05 08:11:13;;;;;;;7.18;3.10;;;;;;;4.18;99.85;99928.41;5091693;28;20047;-69
2021/11/05 08:13:41;;;;;;;5.20;3.38;;;;;;;4.15;100.00;99933.69;5092031;28;20487;-69
2021/11/05 08:16:08;;;;;;;5.45;3.67;;;;;;;4.10;100.00;99931.31;5091600;28;20055;-69
2021/11/05 08:18:35;;;;;;;9.60;4.13;;;;;;;4.04;100.00;99918.69;5092097;28;20044;-68
2021/11/05 08:21:02;;;;;;;;;;;;;;;4.08;100.00;99919.41;5092239;28;20048;-69
2021/11/05 08:23:30;;;;;;;6.72;4.07;;;;;;;4.09;100.00;99919.34;5091762;28;19920;-69
2021/11/05 08:25:58;;;;;;;5.63;3.90;;;;;;;4.11;100.00;99916.69;5091665;28;20056;-68
2021/11/05 08:28:24;;;;;;;;;;;;;;;4.11;100.00;99908.97;5092488;28;20048;-69
2021/11/05 08:30:52;;;;;;;8.98;4.57;;;;;;;4.10;100.00;99910.72;5091605;28;19932;-68
2021/11/05 08:33:21;;;;;;;6.40;3.25;;;;;;;4.09;100.00;99908.22;5091397;28;20415;-68
2021/11/05 08:35:51;;;;;;;5.93;3.78;;;;;;;4.08;100.00;99899.63;5091780;28;20048;-68
2021/11/05 08:38:19;;;;;;;5.22;4.05;;;;;;;4.06;100.00;99893.72;5091723;28;20055;-68
2021/11/05 08:40:50;;;;;;;5.05;3.40;;;;;;;4.07;100.00;99895.41;5091581;28;20052;-68
2021/11/05 08:43:19;;;;;;;5.05;3.17;;;;;;;4.09;100.00;99890.19;5091596;28;20415;-68
2021/11/05 08:45:46;;;;;;;5.70;3.08;;;;;;;4.09;100.00;99892.78;5091315;28;20048;-68
2021/11/05 08:48:14;;;;;;;3.08;2.38;;;;;;;4.07;100.00;99885.09;5091508;28;20051;-69
2021/11/05 08:50:41;;;;;;;4.45;2.72;;;;;;;4.06;100.00;99883.44;5091465;28;20048;-68
2021/11/05 08:53:08;;;;;;;;;;;;;;;4.08;100.00;99884.19;5091514;28;20060;-68
2021/11/05 08:55:37;;;;;;;4.75;2.65;;;;;;;4.05;100.00;99875.75;5091377;28;20019;-69
2021/11/05 08:58:05;;;;;;;3.75;2.92;;;;;;;4.02;100.00;99875.91;5091027;28;20419;-69
2021/11/05 09:00:33;;;;;;;5.47;4.20;;;;;;;4.03;100.00;99869.84;5091608;28;20048;-68
2021/11/05 09:03:01;;;;;;;3.60;3.05;;;;;;;4.03;100.00;99868.09;5093569;28;20487;-68
2021/11/05 09:05:28;;;;;;;3.58;2.63;;;;;;;4.06;100.00;99867.13;5094894;28;20048;-68
2021/11/05 09:07:55;;;;;;;5.55;3.55;;;;;;;4.05;100.00;99860.31;5094876;28;20058;-68
2021/11/05 09:10:22;;;;;;;;;;;;;;;4.05;100.00;99861.16;5095584;28;20049;-69
2021/11/05 09:12:49;;;;;;;4.00;3.17;;;;;;;4.06;100.00;99860.28;5095229;28;20078;-68
2021/11/05 09:15:20;;;;;;;3.63;2.78;;;;;;;4.07;100.00;99854.22;5094646;28;20048;-68
2021/11/05 09:17:47;;;;;;;2.28;1.77;;;;;;;4.09;100.00;99857.56;5094741;28;20048;-68
2021/11/05 09:20:16;;;;;;;2.53;1.88;;;;;;;4.05;100.00;99850.84;5094381;28;20055;-68
2021/11/05 09:22:43;;;;;;;2.15;1.60;;;;;;;4.05;100.00;99850.84;5094574;28;20510;-69
2021/11/05 09:25:09;;;;;;;;;;;;;;;4.04;100.00;99848.38;5094729;28;20488;-68
2021/11/05 09:27:37;;;;;;;3.50;1.30;;;;;;;4.04;100.00;99845.78;5094661;28;19920;-68
2021/11/05 09:30:05;;;;;;;2.35;1.83;;;;;;;4.05;100.00;99847.44;5094299;28;20415;-68
2021/11/05 09:32:34;;;;;;;2.75;2.08;;;;;;;4.05;100.00;99837.16;5094793;28;20054;-69
2021/11/05 09:35:01;;;;;;;2.08;1.77;;;;;;;4.07;100.00;99841.34;5094154;28;20410;-69
2021/11/05 09:37:28;;;;;;;2.97;2.22;;;;;;;4.08;100.00;99830.13;5094301;28;20445;-68
2021/11/05 09:39:55;;;;;;;2.03;1.65;;;;;;;4.10;100.00;99830.91;5094694;28;20050;-68
2021/11/05 09:42:22;;;;;;;3.58;1.90;;;;;;;4.13;100.00;99827.34;5094223;28;20055;-69
2021/11/05 09:44:48;;;;;;;2.80;2.00;;;;;;;4.09;100.00;99821.53;5094183;28;20495;-68
2021/11/05 09:47:15;;;;;;;2.88;2.10;;;;;;;4.10;100.00;99822.34;5093894;28;20523;-68
2021/11/05 09:49:44;;;;;;;1.55;1.13;;;;;;;4.08;100.00;99817.25;5094201;28;20048;-68
2021/11/05 09:52:11;;;;;;;2.80;1.88;;;;;;;4.06;100.00;99816.50;5093754;28;20052;-68
2021/11/05 09:54:39;;;;;;;4.32;2.30;;;;;;;4.08;100.00;99812.09;5094382;28;20051;-68
2021/11/05 09:57:07;;;;;;;2.88;2.13;;;;;;;4.12;100.00;99811.09;5093663;28;20441;-68
2021/11/05 09:59:35;;;;;;;3.13;2.35;;;;;;;4.08;100.00;99804.38;5093933;28;20050;-68
2021/11/05 10:02:02;;;;;;;2.10;1.90;;;;;;;4.11;100.00;99799.13;5093480;28;20056;-68
2021/11/05 10:04:29;;;;;;;4.70;2.10;;;;;;;4.14;100.00;99793.00;5093862;28;20060;-68
2021/11/05 10:07:02;;;;;;;4.65;2.05;;;;;;;4.09;100.00;99789.78;5093833;28;20048;-68
2021/11/05 10:09:37;;;;;;;2.53;2.15;;;;;;;4.14;100.00;99788.69;5093826;28;20059;-68
2021/11/05 10:12:10;;;;;;;1.98;1.70;;;;;;;4.20;100.00;99776.44;5093510;28;20048;-69
2021/11/05 10:14:38;;;;;;;3.03;1.80;;;;;;;4.16;100.00;99775.72;5093488;28;20055;-68
2021/11/05 10:17:08;;;;;;;2.85;2.03;;;;;;;4.10;100.00;99771.69;5093635;28;20062;-69
2021/11/05 10:19:50;;;;;;;2.92;2.10;;;;;;;4.11;100.00;99762.22;5094104;28;20055;-68
2021/11/05 10:22:43;;;;;;;2.75;2.28;;;;;;;4.16;100.00;99765.44;5093963;28;20056;-68
2021/11/05 10:25:22;;;;;;;1.73;1.45;;;;;;;4.08;100.00;99759.78;5089388;28;20048;-69
2021/11/05 10:28:01;;;;;;;2.95;1.77;;;;;;;4.11;100.00;99759.66;5093461;28;20051;-69
2021/11/05 10:30:28;;;;;;;1.90;1.60;;;;;;;4.08;100.00;99759.78;5093358;28;20234;-68
2021/11/05 10:32:55;;;;;;;;;;;;;;;4.10;100.00;99753.66;5093829;28;20044;-68
2021/11/05 10:35:22;;;;;;;3.10;2.00;;;;;;;4.06;100.00;99749.56;5093630;28;19920;-68
2021/11/05 10:37:55;;;;;;;1.73;1.50;;;;;;;4.04;100.00;99745.41;5093465;28;20050;-69
2021/11/05 10:40:22;;;;;;;2.75;2.40;;;;;;;4.00;100.00;99739.53;5093168;28;20055;-68
2021/11/05 10:42:49;;;;;;;3.30;2.38;;;;;;;4.00;100.00;99744.69;5093085;28;20048;-68
2021/11/05 10:45:18;;;;;;;2.55;2.10;;;;;;;4.00;100.00;99736.97;5093487;28;20079;-68
2021/11/05 10:48:00;;;;;;;2.42;1.80;;;;;;;3.95;100.00;99733.75;5092994;28;20056;-68
2021/11/05 10:50:29;;;;;;;3.60;2.60;;;;;;;3.93;100.00;99733.00;5093100;28;20052;-68
2021/11/05 10:53:08;;;;;;;3.70;1.98;;;;;;;3.95;100.00;99727.78;5092906;28;20066;-68
2021/11/05 10:55:40;;;;;;;3.95;2.90;;;;;;;3.93;100.00;99728.69;5093267;28;20050;-68
2021/11/05 10:58:07;;;;;;;3.30;2.20;;;;;;;3.94;100.00;99724.38;5092836;28;20051;-68
2021/11/05 11:00:35;;;;;;;3.90;2.80;;;;;;;3.96;100.00;99722.56;5093187;28;20044;-68
2021/11/05 11:03:15;;;;;;;3.60;2.28;;;;;;;3.97;100.00;99713.09;5092539;28;20043;-68
2021/11/05 11:05:44;;;;;;;4.20;2.97;;;;;;;3.95;100.00;99712.34;5092581;28;20629;-68
2021/11/05 11:08:20;;;;;;;3.65;2.40;;;;;;;3.93;100.00;99709.84;5092302;28;20048;-68
2021/11/05 11:10:49;;;;;;;3.40;2.58;;;;;;;3.92;100.00;99703.00;5092653;28;20407;-68
2021/11/05 11:13:31;;;;;;;5.30;2.70;;;;;;;3.95;100.00;99708.00;5092357;28;20232;-69
2021/11/05 11:15:58;;;;;;;4.05;2.58;;;;;;;3.93;100.00;99702.13;5092615;28;20052;-68
2021/11/05 11:18:25;;;;;;;;;;;;;;;3.95;100.00;99684.03;5093218;28;20048;-68
2021/11/05 11:20:52;;;;;;;3.97;2.80;;;;;;;3.96;100.00;99691.69;5092423;28;20289;-68
2021/11/05 11:23:21;;;;;;;6.95;3.25;;;;;;;3.97;100.00;99687.38;5092261;28;20052;-68
2021/11/05 11:25:48;;;;;;;4.10;2.90;;;;;;;3.98;100.00;99674.41;5091639;28;20045;-68
2021/11/05 11:28:15;;;;;;;4.45;3.35;;;;;;;4.01;100.00;99671.72;5092379;28;20048;-68
2021/11/05 11:30:42;;;;;;;4.47;2.90;;;;;;;4.03;100.00;99675.03;5092305;28;20047;-68
2021/11/05 11:33:09;;;;;;;3.03;2.40;;;;;;;4.01;100.00;99669.16;5092003;28;20542;-68
2021/11/05 11:35:38;;;;;;;3.35;2.72;;;;;;;3.98;100.00;99663.28;5092531;28;20384;-68